Time;durP1;ratioP1;P1;durP2;ratioP2;P2;SDS_P1;SDS_P2;PMS_P1;PMS_P2;Temp;Humidity;BMP_temperature;BMP_pressure;BME280_temperature;BME280_humidity;BME280_pressure;Samples;Min_cycle;Max_cycle;Signal;HPM_P1;HPM_P2
2023/10/03 00:02:05;;;;;;;34.72;24.15;;;18.20;99.90;;;;;;5084559;28;20044;-76
2023/10/03 00:04:31;;;;;;;39.83;25.30;;;18.20;99.90;;;;;;5103333;28;20048;-75
2023/10/03 00:06:57;;;;;;;35.58;25.00;;;18.20;99.90;;;;;;5077245;28;20522;-76
2023/10/03 00:09:23;;;;;;;34.08;23.83;;;18.20;99.90;;;;;;5082607;28;20131;-76
2023/10/03 00:11:49;;;;;;;36.00;23.65;;;18.20;99.90;;;;;;5088425;28;20052;-75
2023/10/03 00:14:15;;;;;;;35.75;24.15;;;18.20;99.90;;;;;;5087498;28;20059;-76
2023/10/03 00:16:41;;;;;;;32.33;23.48;;;18.20;99.90;;;;;;5097815;28;20555;-76
2023/10/03 00:19:07;;;;;;;36.60;24.37;;;18.10;99.90;;;;;;5084196;28;20031;-76
2023/10/03 00:21:33;;;;;;;35.35;23.80;;;18.10;99.90;;;;;;5081942;28;20399;-75
2023/10/03 00:24:01;;;;;;;35.63;23.92;;;18.10;99.90;;;;;;5078603;28;20048;-76
2023/10/03 00:26:28;;;;;;;34.45;23.30;;;18.00;99.90;;;;;;5074903;28;20443;-76
2023/10/03 00:28:57;;;;;;;;;;;18.10;99.90;;;;;;5092721;28;20115;-76
2023/10/03 00:31:23;;;;;;;33.83;22.65;;;18.00;99.90;;;;;;5096156;28;20010;-76
2023/10/03 00:33:49;;;;;;;32.90;23.60;;;18.00;99.90;;;;;;5076622;28;20055;-76
2023/10/03 00:36:17;;;;;;;34.67;23.38;;;18.00;99.90;;;;;;5078294;28;20036;-76
2023/10/03 00:38:42;;;;;;;33.70;22.65;;;18.00;99.90;;;;;;5083522;28;20044;-76
2023/10/03 00:41:08;;;;;;;35.15;23.55;;;18.00;99.90;;;;;;5079986;28;20039;-76
2023/10/03 00:43:34;;;;;;;32.88;22.65;;;18.00;99.90;;;;;;5069507;28;20131;-76
2023/10/03 00:46:00;;;;;;;32.67;22.90;;;18.00;99.90;;;;;;5098064;28;20036;-76
2023/10/03 00:48:27;;;;;;;33.72;23.40;;;18.00;99.90;;;;;;5103127;28;20406;-76
2023/10/03 00:50:54;;;;;;;32.42;23.10;;;17.90;99.90;;;;;;5087052;28;20062;-76
2023/10/03 00:53:19;;;;;;;34.20;23.38;;;17.90;99.90;;;;;;5085175;28;20055;-76
2023/10/03 00:55:47;;;;;;;36.72;23.73;;;17.90;99.90;;;;;;5072626;28;20040;-76
2023/10/03 01:00:49;;;;;;;33.95;22.77;;;17.90;99.90;;;;;;5069467;28;20059;-76
2023/10/03 01:03:37;;;;;;;36.50;24.02;;;17.90;99.90;;;;;;5072944;28;20036;-76
2023/10/03 01:06:07;;;;;;;38.20;23.75;;;17.90;99.90;;;;;;5076134;28;20063;-76
2023/10/03 01:08:36;;;;;;;35.15;23.65;;;17.80;99.90;;;;;;5075990;28;20111;-76
2023/10/03 01:11:04;;;;;;;31.80;22.63;;;17.80;99.90;;;;;;5070873;28;20122;-76
2023/10/03 01:13:30;;;;;;;35.67;23.35;;;17.80;99.90;;;;;;5076939;28;20101;-76
2023/10/03 01:15:56;;;;;;;36.88;23.70;;;17.80;99.90;;;;;;5068870;28;20145;-76
2023/10/03 01:18:26;;;;;;;32.75;22.60;;;17.80;99.90;;;;;;5072407;28;20086;-76
2023/10/03 01:20:55;;;;;;;34.83;22.83;;;17.80;99.90;;;;;;5080897;28;20040;-76
2023/10/03 01:23:22;;;;;;;32.63;22.42;;;17.80;99.90;;;;;;5073400;28;20047;-76
2023/10/03 01:25:48;;;;;;;34.63;22.80;;;17.80;99.90;;;;;;5072940;28;20031;-76
2023/10/03 01:28:15;;;;;;;31.98;21.83;;;17.80;99.90;;;;;;5075293;28;20071;-74
2023/10/03 01:30:41;;;;;;;32.27;22.70;;;17.80;99.90;;;;;;5078068;28;20108;-76
2023/10/03 01:33:08;;;;;;;30.85;21.38;;;17.80;99.90;;;;;;5061876;28;20403;-75
2023/10/03 01:35:34;;;;;;;32.05;22.08;;;17.80;99.90;;;;;;5073450;28;20093;-76
2023/10/03 01:38:00;;;;;;;32.60;21.88;;;17.80;99.90;;;;;;5072331;28;20122;-76
2023/10/03 01:40:26;;;;;;;36.28;23.33;;;17.80;99.90;;;;;;5089797;28;20048;-76
2023/10/03 01:42:52;;;;;;;30.98;21.13;;;17.80;99.90;;;;;;5074184;28;20054;-76
2023/10/03 01:45:24;;;;;;;34.58;21.40;;;17.80;99.90;;;;;;5081556;28;20052;-76
2023/10/03 01:47:51;;;;;;;33.08;22.92;;;17.80;99.90;;;;;;5081589;28;20123;-76
2023/10/03 01:50:21;;;;;;;34.65;22.40;;;17.80;99.90;;;;;;5086267;28;20047;-76
2023/10/03 01:52:48;;;;;;;32.85;21.20;;;17.80;99.90;;;;;;5082907;28;20048;-76
2023/10/03 01:55:17;;;;;;;35.92;23.00;;;17.80;99.90;;;;;;5075383;28;20051;-76
2023/10/03 01:57:44;;;;;;;31.38;21.05;;;17.70;99.90;;;;;;5094837;28;20113;-75
2023/10/03 02:00:25;;;;;;;33.72;22.58;;;17.70;99.90;;;;;;5075111;28;20510;-75
2023/10/03 02:03:05;;;;;;;30.90;21.27;;;17.70;99.90;;;;;;5072594;28;20044;-75
2023/10/03 02:05:39;;;;;;;31.50;20.80;;;17.70;99.90;;;;;;5106041;28;20050;-76
2023/10/03 02:08:19;;;;;;;34.10;22.17;;;17.70;99.90;;;;;;5080830;28;20040;-79
2023/10/03 02:10:49;;;;;;;32.70;21.02;;;17.60;99.90;;;;;;5076130;28;20051;-81
2023/10/03 02:13:17;;;;;;;32.63;22.13;;;17.60;99.90;;;;;;5078700;28;20040;-81
2023/10/03 02:15:53;;;;;;;;;;;17.60;99.90;;;;;;5060592;28;20553;-81
2023/10/03 02:18:20;;;;;;;33.40;22.05;;;17.60;99.90;;;;;;5077939;28;20069;-81
2023/10/03 02:20:52;;;;;;;34.53;22.38;;;17.60;99.90;;;;;;5095522;28;20482;-81
2023/10/03 02:23:25;;;;;;;32.03;21.00;;;17.60;99.90;;;;;;5071611;28;20058;-81
2023/10/03 02:25:56;;;;;;;35.22;22.48;;;17.60;99.90;;;;;;5088502;28;20177;-81
2023/10/03 02:28:22;;;;;;;31.15;21.40;;;17.60;99.90;;;;;;5072270;28;20495;-81
2023/10/03 02:30:50;;;;;;;34.00;22.13;;;17.60;99.90;;;;;;5068431;28;20051;-81
2023/10/03 02:33:17;;;;;;;33.90;22.60;;;17.60;99.90;;;;;;5069395;28;20059;-81
2023/10/03 02:35:46;;;;;;;32.42;21.90;;;17.60;99.90;;;;;;5095774;28;20039;-81
2023/10/03 02:38:58;;;;;;;35.88;22.13;;;17.60;99.90;;;;;;5078197;28;20044;-81
2023/10/03 02:40:59;;;;;;;;;;;17.60;99.90;;;;;;5063292;28;20047;-81
2023/10/03 02:43:28;;;;;;;34.92;22.20;;;17.60;99.90;;;;;;5070125;28;19978;-81
2023/10/03 02:45:54;;;;;;;35.90;22.42;;;17.60;99.90;;;;;;5083866;28;20067;-81
2023/10/03 02:48:21;;;;;;;34.40;22.52;;;17.60;99.90;;;;;;5085703;28;20039;-81
2023/10/03 02:50:49;;;;;;;34.08;22.48;;;17.60;99.90;;;;;;5081344;28;20501;-81
2023/10/03 02:53:24;;;;;;;35.22;21.33;;;17.60;99.90;;;;;;5073894;28;20043;-81
2023/10/03 02:55:52;;;;;;;34.67;21.80;;;17.60;99.90;;;;;;5072774;28;20497;-81
2023/10/03 02:58:22;;;;;;;32.95;21.42;;;17.60;99.90;;;;;;5080436;28;20440;-81
2023/10/03 03:00:53;;;;;;;33.55;21.67;;;17.60;99.90;;;;;;5078583;28;20491;-81
2023/10/03 03:03:19;;;;;;;34.38;22.45;;;17.60;99.90;;;;;;5070443;28;20083;-81
2023/10/03 03:05:46;;;;;;;36.13;22.75;;;17.60;99.90;;;;;;5070027;28;20075;-81
2023/10/03 03:10:49;;;;;;;32.75;21.63;;;17.60;99.90;;;;;;5075172;28;20044;-81
2023/10/03 03:13:15;;;;;;;34.08;22.05;;;17.60;99.90;;;;;;5074996;28;20043;-81
2023/10/03 03:15:49;;;;;;;35.53;22.40;;;17.70;99.90;;;;;;5073031;28;20067;-81
2023/10/03 03:18:16;;;;;;;32.63;22.13;;;17.60;99.90;;;;;;5076731;28;20047;-81
2023/10/03 03:20:43;;;;;;;37.25;23.65;;;17.60;99.90;;;;;;5072774;28;20051;-81
2023/10/03 03:23:13;;;;;;;35.42;21.65;;;17.60;99.90;;;;;;5097206;28;20043;-81
2023/10/03 03:25:39;;;;;;;35.90;21.48;;;17.70;99.90;;;;;;5093026;28;20166;-82
2023/10/03 03:28:12;;;;;;;33.42;21.27;;;17.70;99.90;;;;;;5100056;28;20068;-81
2023/10/03 03:30:46;;;;;;;35.38;21.83;;;17.70;99.90;;;;;;5070981;28;20065;-81
2023/10/03 03:33:14;;;;;;;33.22;21.20;;;17.70;99.90;;;;;;5073469;28;20039;-81
2023/10/03 03:35:41;;;;;;;31.63;21.10;;;17.70;99.90;;;;;;5072235;28;20047;-81
2023/10/03 03:38:07;;;;;;;34.03;21.13;;;17.70;99.90;;;;;;5072394;28;20063;-81
2023/10/03 03:40:34;;;;;;;36.72;21.02;;;17.70;99.90;;;;;;5072166;28;20048;-82
2023/10/03 03:43:03;;;;;;;37.72;21.75;;;17.70;99.90;;;;;;5076138;28;21306;-81
2023/10/03 03:45:30;;;;;;;35.63;21.90;;;17.70;99.90;;;;;;5076667;28;20051;-76
2023/10/03 03:47:56;;;;;;;32.13;20.70;;;17.70;99.90;;;;;;5074314;28;20109;-76
2023/10/03 03:50:22;;;;;;;34.13;20.45;;;17.70;99.90;;;;;;5083238;28;20109;-76
2023/10/03 03:52:52;;;;;;;32.72;20.50;;;17.70;99.90;;;;;;5072197;28;20043;-75
2023/10/03 03:55:18;;;;;;;34.53;19.92;;;17.80;99.90;;;;;;5076114;28;20050;-75
2023/10/03 03:57:51;;;;;;;31.92;20.90;;;17.80;99.90;;;;;;5079708;28;20063;-76
2023/10/03 04:00:21;;;;;;;33.90;20.80;;;17.80;99.90;;;;;;5071117;28;20119;-75
2023/10/03 04:02:48;;;;;;;31.10;20.23;;;17.80;99.90;;;;;;5076859;28;20487;-75
2023/10/03 04:05:17;;;;;;;33.97;20.60;;;17.80;99.90;;;;;;5093529;28;20040;-76
2023/10/03 04:07:43;;;;;;;30.42;19.25;;;17.80;99.90;;;;;;5075478;28;20040;-76
2023/10/03 04:10:12;;;;;;;31.08;18.75;;;17.80;99.90;;;;;;5078640;28;20105;-76
2023/10/03 04:12:42;;;;;;;31.80;18.50;;;17.90;99.90;;;;;;5073304;28;20051;-76
2023/10/03 04:15:15;;;;;;;30.33;19.02;;;17.90;99.90;;;;;;5071476;28;20047;-76
2023/10/03 04:17:42;;;;;;;34.45;19.60;;;18.00;99.90;;;;;;5069900;28;20513;-76
2023/10/03 04:22:53;;;;;;;33.10;19.40;;;18.00;99.90;;;;;;5079448;28;20048;-76
2023/10/03 04:25:20;;;;;;;32.15;19.13;;;18.10;99.90;;;;;;5090247;28;20040;-76
2023/10/03 04:27:52;;;;;;;31.02;19.45;;;18.10;99.90;;;;;;5074830;28;20051;-76
2023/10/03 04:30:22;;;;;;;31.92;19.80;;;18.10;99.90;;;;;;5070872;28;20043;-76
2023/10/03 04:32:49;;;;;;;30.77;19.33;;;18.20;99.90;;;;;;5080576;28;20085;-76
2023/10/03 04:35:15;;;;;;;30.45;18.58;;;18.20;99.90;;;;;;5072544;28;20044;-76
2023/10/03 04:37:44;;;;;;;31.90;18.92;;;18.20;99.90;;;;;;5069588;28;20043;-76
2023/10/03 04:40:21;;;;;;;31.90;20.17;;;18.20;99.90;;;;;;5077007;28;20047;-76
2023/10/03 04:42:51;;;;;;;31.98;19.75;;;18.20;99.90;;;;;;5070103;28;20138;-76
2023/10/03 04:45:19;;;;;;;27.30;17.77;;;18.20;99.90;;;;;;5082130;28;20474;-76
2023/10/03 04:47:47;;;;;;;32.25;18.63;;;18.20;99.90;;;;;;5079282;28;20555;-75
2023/10/03 04:50:17;;;;;;;30.42;18.73;;;18.20;99.90;;;;;;5078029;28;20071;-76
2023/10/03 04:52:43;;;;;;;29.98;18.38;;;18.20;99.90;;;;;;5079002;28;20044;-76
2023/10/03 04:55:09;;;;;;;32.63;19.13;;;18.20;99.90;;;;;;5097654;28;20143;-76
2023/10/03 04:57:35;;;;;;;29.52;18.25;;;18.20;99.90;;;;;;5085680;28;20085;-76
2023/10/03 05:00:04;;;;;;;29.08;19.02;;;18.20;99.90;;;;;;5072214;28;20173;-76
2023/10/03 05:02:30;;;;;;;30.83;19.05;;;18.20;99.90;;;;;;5080225;28;20043;-76
2023/10/03 05:04:55;;;;;;;31.58;19.00;;;18.20;99.90;;;;;;5086851;28;20044;-76
2023/10/03 05:07:23;;;;;;;27.10;17.65;;;18.20;99.90;;;;;;5069246;28;20602;-76
2023/10/03 05:09:51;;;;;;;31.60;18.73;;;18.20;99.90;;;;;;5067892;28;20134;-76
2023/10/03 05:12:20;;;;;;;28.17;17.65;;;18.20;99.90;;;;;;5096935;28;20054;-76
2023/10/03 05:14:47;;;;;;;28.10;18.50;;;18.20;99.90;;;;;;5071002;28;20410;-76
2023/10/03 05:17:14;;;;;;;28.67;17.70;;;18.20;99.90;;;;;;5077919;28;20048;-75
2023/10/03 05:19:41;;;;;;;27.30;16.67;;;18.20;99.90;;;;;;5074010;28;20070;-75
2023/10/03 05:22:08;;;;;;;29.58;18.45;;;18.20;99.90;;;;;;5077321;28;20172;-75
2023/10/03 05:24:34;;;;;;;;;;;18.20;99.90;;;;;;5095788;28;20076;-75
2023/10/03 05:27:00;;;;;;;27.47;18.30;;;18.20;99.90;;;;;;5075873;28;19955;-75
2023/10/03 05:29:28;;;;;;;29.60;18.80;;;18.20;99.90;;;;;;5073125;28;20052;-76
2023/10/03 05:31:54;;;;;;;29.30;17.58;;;18.30;99.90;;;;;;5093983;28;20108;-73
2023/10/03 05:34:21;;;;;;;29.38;16.42;;;18.30;99.90;;;;;;5090281;28;20448;-76
2023/10/03 05:36:50;;;;;;;29.40;17.77;;;18.30;99.90;;;;;;5093200;28;20056;-76
2023/10/03 05:39:18;;;;;;;29.45;17.55;;;18.30;99.90;;;;;;5083458;28;20048;-76
2023/10/03 05:41:45;;;;;;;25.58;16.20;;;18.30;99.90;;;;;;5078657;28;20096;-76
2023/10/03 05:44:11;;;;;;;27.92;17.52;;;18.40;99.90;;;;;;5071754;28;20052;-76
2023/10/03 05:46:42;;;;;;;28.42;17.05;;;18.40;99.90;;;;;;5081415;28;20051;-76
2023/10/03 05:49:08;;;;;;;27.95;15.93;;;18.50;99.90;;;;;;5074960;28;20429;-76
2023/10/03 05:51:34;;;;;;;27.00;15.90;;;18.50;99.90;;;;;;5075931;28;20100;-75
2023/10/03 05:54:05;;;;;;;27.13;15.00;;;18.50;99.90;;;;;;5095129;28;20117;-77
2023/10/03 05:56:31;;;;;;;24.90;15.50;;;18.50;99.90;;;;;;5071909;28;20052;-77
2023/10/03 05:59:00;;;;;;;28.17;15.40;;;18.50;99.90;;;;;;5083128;28;20044;-77
2023/10/03 06:01:25;;;;;;;27.67;15.13;;;18.50;99.90;;;;;;5101328;28;20047;-77
2023/10/03 06:03:51;;;;;;;24.42;15.00;;;18.50;99.90;;;;;;5075364;28;20036;-77
2023/10/03 06:06:17;;;;;;;26.05;15.20;;;18.60;99.90;;;;;;5096124;28;20537;-77
2023/10/03 06:08:48;;;;;;;23.40;14.52;;;18.60;99.90;;;;;;5077421;28;20130;-77
2023/10/03 06:11:14;;;;;;;26.13;14.32;;;18.60;99.90;;;;;;5071766;28;20406;-77
2023/10/03 06:13:44;;;;;;;24.98;13.85;;;18.60;99.90;;;;;;5084712;28;20044;-76
2023/10/03 06:16:12;;;;;;;22.65;13.07;;;18.60;99.90;;;;;;5076411;28;20064;-77
2023/10/03 06:18:41;;;;;;;24.45;13.30;;;18.60;99.90;;;;;;5073003;28;20044;-77
2023/10/03 06:21:07;;;;;;;21.15;12.50;;;18.60;99.90;;;;;;5073460;28;20119;-77
2023/10/03 06:23:34;;;;;;;22.55;12.20;;;18.60;99.90;;;;;;5082581;28;20087;-77
2023/10/03 06:26:01;;;;;;;21.63;12.25;;;18.70;99.90;;;;;;5071019;28;20051;-77
2023/10/03 06:28:28;;;;;;;21.13;12.05;;;18.70;99.90;;;;;;5074569;28;20047;-77
2023/10/03 06:30:54;;;;;;;;;;;18.70;99.90;;;;;;5068511;28;20052;-77
2023/10/03 06:33:20;;;;;;;23.98;11.30;;;18.70;99.90;;;;;;5093207;28;20315;-77
2023/10/03 06:35:52;;;;;;;22.55;12.50;;;18.70;99.90;;;;;;5072565;28;20048;-77
2023/10/03 06:38:23;;;;;;;20.55;10.00;;;18.70;99.90;;;;;;5075145;28;20076;-77
2023/10/03 06:40:49;;;;;;;21.42;9.13;;;18.80;99.90;;;;;;5075738;28;20673;-78
2023/10/03 06:43:16;;;;;;;18.50;9.00;;;18.80;99.90;;;;;;5073675;28;20043;-77
2023/10/03 06:45:42;;;;;;;20.50;8.43;;;18.70;99.90;;;;;;5069822;28;20499;-77
2023/10/03 06:48:09;;;;;;;15.88;8.27;;;18.80;99.90;;;;;;5102300;28;20043;-77
2023/10/03 06:50:35;;;;;;;14.55;7.70;;;18.80;99.90;;;;;;5076086;28;20720;-78
2023/10/03 06:53:01;;;;;;;18.08;7.57;;;18.80;99.90;;;;;;5077758;28;20043;-77
2023/10/03 06:55:26;;;;;;;16.50;7.22;;;18.80;99.90;;;;;;5079706;28;20064;-74
2023/10/03 06:57:52;;;;;;;17.30;7.28;;;18.80;99.90;;;;;;5069970;28;20040;-75
2023/10/03 07:00:21;;;;;;;16.17;7.35;;;18.80;99.90;;;;;;5074397;28;20040;-73
2023/10/03 07:02:48;;;;;;;19.63;7.80;;;18.80;99.90;;;;;;5081935;28;20619;-72
2023/10/03 07:05:15;;;;;;;18.08;7.53;;;18.80;99.90;;;;;;5074302;28;20048;-75
2023/10/03 07:07:41;;;;;;;14.85;8.20;;;18.80;99.90;;;;;;5093209;28;20089;-73
2023/10/03 07:10:09;;;;;;;20.60;8.27;;;18.80;99.90;;;;;;5072177;28;20410;-74
2023/10/03 07:12:34;;;;;;;15.48;7.40;;;18.80;99.90;;;;;;5090245;28;20044;-72
2023/10/03 07:15:00;;;;;;;17.45;7.18;;;18.70;99.90;;;;;;5090064;28;20044;-73
2023/10/03 07:17:26;;;;;;;15.57;7.20;;;18.80;99.90;;;;;;5072155;28;20480;-73
2023/10/03 07:19:51;;;;;;;15.40;5.80;;;18.80;99.90;;;;;;5081066;28;20039;-73
2023/10/03 07:22:20;;;;;;;14.65;6.97;;;18.80;99.90;;;;;;5094506;28;20062;-73
2023/10/03 07:24:46;;;;;;;13.85;5.93;;;18.90;99.90;;;;;;5074546;28;20047;-72
2023/10/03 07:27:14;;;;;;;13.70;5.80;;;18.90;99.90;;;;;;5069466;28;20044;-73
2023/10/03 07:29:42;;;;;;;14.18;5.95;;;18.90;99.90;;;;;;5071230;28;20119;-72
2023/10/03 07:32:12;;;;;;;15.88;6.45;;;18.90;99.90;;;;;;5079172;28;20087;-74
2023/10/03 07:34:42;;;;;;;12.80;6.00;;;18.90;99.90;;;;;;5081638;28;20046;-76
2023/10/03 07:37:09;;;;;;;14.77;5.97;;;18.90;99.90;;;;;;5073592;28;20104;-75
2023/10/03 07:39:35;;;;;;;14.80;6.55;;;19.00;99.90;;;;;;5085704;28;20547;-75
2023/10/03 07:42:01;;;;;;;16.20;7.28;;;19.00;99.90;;;;;;5071831;28;20233;-81
2023/10/03 07:44:27;;;;;;;13.45;7.55;;;19.00;99.90;;;;;;5077960;28;20047;-76
2023/10/03 07:46:53;;;;;;;15.65;6.70;;;19.10;99.90;;;;;;5072939;28;20091;-77
2023/10/03 07:49:19;;;;;;;15.18;7.18;;;19.00;99.90;;;;;;5088819;28;20102;-74
2023/10/03 07:51:45;;;;;;;19.80;7.55;;;19.00;99.90;;;;;;5073646;28;20132;-73
2023/10/03 07:54:13;;;;;;;15.40;7.47;;;19.00;99.90;;;;;;5072072;28;20074;-73
2023/10/03 07:56:42;;;;;;;15.45;7.45;;;19.00;99.90;;;;;;5069688;28;20086;-74
2023/10/03 07:59:08;;;;;;;14.38;6.85;;;19.00;99.90;;;;;;5065974;28;20093;-73
2023/10/03 08:01:38;;;;;;;13.65;6.68;;;19.00;99.90;;;;;;5071813;28;20131;-75
2023/10/03 08:04:08;;;;;;;14.02;6.55;;;18.90;99.90;;;;;;5070651;28;20056;-72
2023/10/03 08:06:34;;;;;;;13.57;6.53;;;18.90;99.90;;;;;;5095591;28;20048;-72
2023/10/03 08:09:00;;;;;;;14.10;6.43;;;18.90;99.90;;;;;;5072032;28;20479;-72
2023/10/03 08:11:30;;;;;;;10.82;5.95;;;18.90;99.90;;;;;;5069938;28;20074;-71
2023/10/03 08:13:56;;;;;;;14.35;5.97;;;18.80;99.90;;;;;;5075465;28;20050;-72
2023/10/03 08:16:22;;;;;;;13.03;5.47;;;18.80;99.90;;;;;;5074801;28;20102;-75
2023/10/03 08:18:57;;;;;;;11.98;5.80;;;18.80;99.90;;;;;;5069964;28;20294;-73
2023/10/03 08:21:29;;;;;;;11.93;5.40;;;18.80;99.90;;;;;;5096167;28;20057;-73
2023/10/03 08:23:56;;;;;;;14.32;5.55;;;18.70;99.90;;;;;;5103101;28;20371;-72
2023/10/03 08:26:23;;;;;;;13.53;6.10;;;18.70;99.90;;;;;;5093923;28;20044;-72
2023/10/03 08:29:04;;;;;;;;;;;18.70;99.90;;;;;;5078003;28;20048;-72
2023/10/03 08:31:31;;;;;;;14.77;5.75;;;18.60;99.90;;;;;;5086241;28;20118;-72
2023/10/03 08:33:56;;;;;;;12.23;5.57;;;18.50;99.90;;;;;;5081212;28;20063;-75
2023/10/03 08:36:27;;;;;;;13.98;5.88;;;18.60;99.90;;;;;;5079254;28;20124;-73
2023/10/03 08:39:04;;;;;;;11.75;5.97;;;18.50;99.90;;;;;;5085929;28;20082;-73
2023/10/03 08:42:11;;;;;;;11.82;6.13;;;18.50;99.90;;;;;;5059612;28;20079;-74
2023/10/03 08:44:42;;;;;;;14.63;6.97;;;18.40;99.90;;;;;;5076458;28;20074;-74
2023/10/03 08:47:11;;;;;;;13.95;6.28;;;18.30;99.90;;;;;;5078483;28;20047;-78
2023/10/03 08:49:39;;;;;;;13.02;5.93;;;18.30;99.90;;;;;;5086765;28;20062;-75
2023/10/03 08:52:06;;;;;;;12.05;6.43;;;18.20;99.90;;;;;;5094046;28;20035;-75
2023/10/03 08:54:37;;;;;;;13.90;6.53;;;18.20;99.90;;;;;;5093157;28;20056;-81
2023/10/03 08:57:04;;;;;;;14.43;5.90;;;18.10;99.90;;;;;;5077691;28;20122;-82
2023/10/03 08:59:33;;;;;;;12.23;4.55;;;18.10;99.90;;;;;;5074318;28;20047;-88
2023/10/03 09:02:08;;;;;;;9.55;4.88;;;18.00;99.90;;;;;;5082657;28;20040;-76
2023/10/03 09:04:38;;;;;;;14.13;5.47;;;18.00;99.90;;;;;;5081986;28;20051;-73
2023/10/03 09:07:13;;;;;;;10.25;4.60;;;18.00;99.90;;;;;;5078957;28;20108;-73
2023/10/03 09:09:41;;;;;;;8.77;3.65;;;18.00;99.90;;;;;;5074112;28;20118;-73
2023/10/03 09:12:08;;;;;;;10.40;4.18;;;18.00;99.90;;;;;;5079371;28;20040;-73
2023/10/03 09:14:36;;;;;;;9.40;4.00;;;17.90;99.90;;;;;;5079330;28;20075;-73
2023/10/03 09:17:05;;;;;;;9.65;3.47;;;17.90;99.90;;;;;;5090578;28;20137;-73
2023/10/03 09:19:44;;;;;;;9.15;2.83;;;17.90;99.90;;;;;;5076001;28;20044;-73
2023/10/03 09:22:10;;;;;;;8.05;2.75;;;17.90;99.90;;;;;;5078644;28;20052;-72
2023/10/03 09:24:46;;;;;;;8.68;2.90;;;17.90;99.90;;;;;;5088090;28;20109;-74
2023/10/03 09:27:17;;;;;;;8.18;2.30;;;17.90;99.90;;;;;;5083467;28;20505;-74
2023/10/03 09:29:45;;;;;;;7.93;2.70;;;17.80;99.90;;;;;;5074885;28;20444;-73
2023/10/03 09:32:15;;;;;;;9.40;2.40;;;17.90;99.90;;;;;;5089704;28;20109;-74
2023/10/03 09:34:46;;;;;;;8.02;2.30;;;17.90;99.90;;;;;;5074204;28;20047;-74
2023/10/03 09:37:12;;;;;;;10.63;2.40;;;17.90;99.90;;;;;;5076953;28;20051;-77
2023/10/03 09:39:39;;;;;;;11.13;2.42;;;17.90;99.90;;;;;;5097914;28;20040;-77
2023/10/03 09:42:16;;;;;;;5.70;2.00;;;17.90;99.90;;;;;;5073537;28;20044;-78
2023/10/03 09:44:46;;;;;;;10.53;2.63;;;17.80;99.90;;;;;;5073487;28;20096;-82
2023/10/03 09:47:13;;;;;;;7.88;2.35;;;17.80;99.90;;;;;;5087866;28;20102;-79
2023/10/03 09:49:40;;;;;;;8.60;2.10;;;17.80;99.90;;;;;;5075738;28;20471;-76
2023/10/03 09:52:26;;;;;;;7.93;2.20;;;17.80;99.90;;;;;;5082070;28;20032;-76
2023/10/03 09:54:59;;;;;;;9.00;1.70;;;17.80;99.90;;;;;;5092422;28;20086;-76
2023/10/03 09:57:28;;;;;;;5.05;1.33;;;17.80;99.90;;;;;;5102334;28;20052;-76
2023/10/03 09:59:55;;;;;;;6.57;1.70;;;17.80;99.90;;;;;;5074024;28;20048;-76
2023/10/03 10:02:35;;;;;;;8.10;1.80;;;17.80;99.90;;;;;;5077329;28;20590;-77
2023/10/03 10:05:19;;;;;;;3.83;1.40;;;17.80;99.90;;;;;;5096123;28;20050;-78
2023/10/03 10:08:17;;;;;;;4.38;1.13;;;17.70;99.90;;;;;;5098378;28;20088;-78
2023/10/03 10:11:02;;;;;;;4.97;1.23;;;17.50;99.90;;;;;;5073158;28;20069;-78
2023/10/03 10:13:34;;;;;;;7.05;1.23;;;17.30;99.90;;;;;;5079473;28;20051;-75
2023/10/03 10:16:13;;;;;;;5.93;1.50;;;17.20;99.90;;;;;;5093121;28;20059;-75
2023/10/03 10:18:45;;;;;;;6.47;1.20;;;17.10;99.90;;;;;;5072069;28;20044;-77
2023/10/03 10:21:20;;;;;;;6.28;1.00;;;17.10;99.90;;;;;;5073036;28;20180;-75
2023/10/03 10:24:20;;;;;;;5.65;1.20;;;17.10;99.90;;;;;;5070700;28;20038;-78
2023/10/03 10:26:52;;;;;;;5.70;1.25;;;17.10;99.90;;;;;;5086137;28;20628;-76
2023/10/03 10:29:19;;;;;;;4.47;1.15;;;17.10;99.90;;;;;;5099243;28;20050;-78
2023/10/03 10:31:57;;;;;;;4.70;1.15;;;17.10;99.90;;;;;;5090492;28;20048;-75
2023/10/03 10:34:27;;;;;;;3.67;1.17;;;17.10;99.90;;;;;;5073451;28;20044;-89
2023/10/03 10:37:09;;;;;;;5.53;1.00;;;17.10;99.90;;;;;;5095074;28;20715;-84
2023/10/03 10:39:53;;;;;;;3.90;0.90;;;17.10;99.90;;;;;;5080784;28;20050;-82
2023/10/03 10:42:25;;;;;;;4.10;0.77;;;17.10;99.90;;;;;;5085165;28;20098;-80
2023/10/03 10:45:15;;;;;;;4.10;0.80;;;17.00;99.90;;;;;;5089036;28;20048;-82
2023/10/03 10:47:51;;;;;;;3.40;0.90;;;17.10;99.90;;;;;;5098364;28;20055;-77
2023/10/03 10:50:17;;;;;;;4.55;0.98;;;17.10;99.90;;;;;;5088719;28;20180;-79
2023/10/03 10:52:57;;;;;;;4.57;1.00;;;17.10;99.90;;;;;;5073166;28;20040;-85
2023/10/03 10:55:26;;;;;;;4.53;0.90;;;17.10;99.90;;;;;;5080638;28;20308;-87
2023/10/03 10:58:12;;;;;;;4.63;0.95;;;17.10;99.90;;;;;;5084501;28;20044;-83
2023/10/03 11:00:39;;;;;;;4.50;0.95;;;17.10;99.90;;;;;;5076129;28;20036;-83
2023/10/03 11:03:09;;;;;;;3.83;0.97;;;17.10;99.90;;;;;;5075096;28;20101;-76
2023/10/03 11:05:49;;;;;;;5.97;1.25;;;17.10;99.90;;;;;;5091942;28;20406;-78
2023/10/03 11:08:17;;;;;;;5.05;1.02;;;17.10;99.90;;;;;;5073817;28;20048;-79
2023/10/03 11:10:52;;;;;;;3.40;0.82;;;17.20;99.90;;;;;;5083627;28;20054;-77
2023/10/03 11:13:19;;;;;;;2.95;1.10;;;17.20;99.90;;;;;;5081704;28;20151;-77
2023/10/03 11:16:04;;;;;;;4.80;1.00;;;17.20;99.90;;;;;;5079217;28;20055;-75
2023/10/03 11:18:31;;;;;;;3.35;0.82;;;17.30;99.90;;;;;;5072853;28;20047;-77
2023/10/03 11:21:00;;;;;;;5.65;1.10;;;17.30;99.90;;;;;;5095355;28;20048;-80
2023/10/03 11:23:26;;;;;;;3.78;0.90;;;17.30;99.90;;;;;;5101316;28;20036;-76
2023/10/03 11:25:59;;;;;;;4.03;1.15;;;17.30;99.90;;;;;;5071213;28;20048;-85
2023/10/03 11:28:29;;;;;;;4.13;1.00;;;17.30;99.90;;;;;;5068959;28;20054;-73
2023/10/03 11:31:01;;;;;;;4.93;1.48;;;17.30;99.90;;;;;;5095089;28;20465;-78
2023/10/03 11:33:27;;;;;;;4.88;1.20;;;17.30;99.90;;;;;;5070528;28;20133;-81
2023/10/03 11:35:54;;;;;;;3.65;1.33;;;17.30;99.90;;;;;;5096312;28;22186;-77
2023/10/03 11:38:19;;;;;;;4.53;1.10;;;17.30;99.90;;;;;;5077405;28;20097;-75
2023/10/03 11:40:47;;;;;;;3.85;1.20;;;17.40;99.90;;;;;;5083710;28;20084;-77
2023/10/03 11:43:20;;;;;;;5.25;1.50;;;17.40;99.90;;;;;;5070648;28;20448;-77
2023/10/03 11:45:55;;;;;;;4.28;1.00;;;17.40;99.90;;;;;;5082505;28;20044;-82
2023/10/03 11:48:22;;;;;;;3.53;1.15;;;17.40;99.90;;;;;;5071671;28;20495;-79
2023/10/03 11:50:49;;;;;;;4.57;1.27;;;17.40;99.90;;;;;;5085878;28;20460;-78
2023/10/03 11:53:15;;;;;;;4.47;1.20;;;17.30;99.90;;;;;;5063339;28;20044;-78
2023/10/03 11:55:42;;;;;;;4.23;1.40;;;17.30;99.90;;;;;;5076329;28;20054;-83
2023/10/03 11:58:12;;;;;;;6.72;1.58;;;17.20;99.90;;;;;;5072513;28;20129;-81
2023/10/03 12:00:44;;;;;;;6.60;1.65;;;17.20;99.90;;;;;;5067663;28;20048;-81
2023/10/03 12:03:10;;;;;;;6.80;1.98;;;17.10;99.90;;;;;;5074414;28;20071;-82
2023/10/03 12:05:36;;;;;;;4.63;1.40;;;17.00;99.90;;;;;;5070695;28;20052;-80
2023/10/03 12:08:05;;;;;;;6.97;1.42;;;17.00;99.90;;;;;;5075060;28;20042;-77
2023/10/03 12:10:31;;;;;;;4.03;1.30;;;16.90;99.90;;;;;;5072513;28;20066;-78
2023/10/03 12:12:58;;;;;;;4.85;1.50;;;16.80;99.90;;;;;;5073494;28;20487;-76
2023/10/03 12:15:24;;;;;;;4.63;1.55;;;16.80;99.90;;;;;;5092092;28;20071;-78
2023/10/03 12:17:51;;;;;;;5.95;1.80;;;16.80;99.90;;;;;;5094949;28;20040;-78
2023/10/03 12:20:19;;;;;;;6.40;2.08;;;16.70;99.90;;;;;;5089404;28;20593;-80
2023/10/03 12:22:45;;;;;;;6.10;1.38;;;16.70;99.90;;;;;;5073855;28;20039;-80
2023/10/03 12:25:12;;;;;;;7.30;1.13;;;16.60;99.90;;;;;;5068550;28;20052;-79
2023/10/03 12:27:38;;;;;;;3.65;1.20;;;16.40;99.90;;;;;;5079474;28;20082;-78
2023/10/03 12:30:08;;;;;;;4.28;1.70;;;16.20;99.90;;;;;;5075641;28;20052;-79
2023/10/03 12:32:35;;;;;;;5.10;1.60;;;16.00;99.90;;;;;;5077558;28;20044;-79
2023/10/03 12:35:03;;;;;;;5.20;1.52;;;15.90;99.90;;;;;;5084429;28;20413;-79
2023/10/03 12:37:31;;;;;;;4.85;2.08;;;15.80;99.90;;;;;;5075640;28;20050;-78
2023/10/03 12:40:01;;;;;;;4.85;1.83;;;15.70;99.90;;;;;;5069966;28;20064;-79
2023/10/03 12:42:28;;;;;;;5.05;2.10;;;15.70;99.90;;;;;;5093938;28;20046;-79
2023/10/03 12:44:56;;;;;;;5.55;2.40;;;15.70;99.90;;;;;;5094535;28;20032;-81
2023/10/03 12:47:23;;;;;;;7.25;2.13;;;15.60;99.90;;;;;;5073144;28;20047;-80
2023/10/03 12:49:48;;;;;;;5.13;2.20;;;15.60;99.90;;;;;;5078910;28;20086;-80
2023/10/03 12:52:14;;;;;;;6.15;2.00;;;15.60;99.90;;;;;;5070342;28;20177;-80
2023/10/03 12:54:40;;;;;;;6.03;2.25;;;15.50;99.90;;;;;;5096967;28;20555;-80